^^
Grace C. Lehan Memorial Weather Station Historical Data
Daily Summary for July 31, 2021 Units:  Metric    English   Both
Daily Weekly Monthly Yearly
  High: Low: Average:
Temperature: 17.3 °C 8.8 °C 13.2 °C
Dew Point: 12.6 °C 8.2 °C 10.8 °C
Humidity: 99.5% 71% 86%
Wind Speed: 12.2km/h 0km/h 2.4km/h
Wind Gust: 32.2km/h - -
Wind- - WNW
Pressure: 1022.2 hPa 1018.8 hPa -
Precipitation: 0 mm    
 
 
Tabular Data for July 31, 2021
Time Temperature Dew Point Pressure Wind Wind Speed Wind Gust Humidity Rainfall Rate (Hourly) solar
00:04 8.8 °C 8.2 °C 1019.9 hPa Calm   1.6 km/h 96% 4.06 mm 0 W/m2
00:09 8.8 °C 8.2 °C 1019.9 hPa NW 2.1 km/h 16.1 km/h 96% 4.32 mm 0 W/m2
00:14 8.8 °C 8.2 °C 1019.9 hPa NW 0.8 km/h 16.1 km/h 96% 4.32 mm 0 W/m2
00:19 8.8 °C 8.2 °C 1019.9 hPa North 1.4 km/h 16.1 km/h 96% 4.32 mm 0 W/m2
00:24 8.8 °C 8.2 °C 1019.5 hPa North 1.3 km/h 16.1 km/h 96% 4.57 mm 0 W/m2
00:28 8.8 °C 8.2 °C 1019.5 hPa NNE 0.6 km/h 16.1 km/h 96% 4.57 mm 0 W/m2
00:30 8.8 °C 8.2 °C 1019.5 hPa NW 1.6 km/h 16.1 km/h 96% 1.02 mm 0 W/m2
02:00 8.8 °C 8.3 °C 1019.2 hPa NNW 1.6 km/h 19.3 km/h 97% 2.29 mm 0 W/m2
02:30 8.8 °C 8.3 °C 1019.2 hPa North 1.6 km/h 20.9 km/h 97% 2.03 mm 0 W/m2
03:00 8.8 °C 8.4 °C 1019.2 hPa NW 1.6 km/h 14.5 km/h 97% 1.78 mm 0 W/m2
03:30 8.9 °C 8.5 °C 1019.2 hPa North 1.6 km/h 16.1 km/h 97% 1.52 mm 0 W/m2
04:04 9 °C 8.8 °C 1019.2 hPa Calm   1.6 km/h 98.8% 4.32 mm 0 W/m2
04:09 9 °C 8.8 °C 1019.2 hPa North 1.9 km/h 9.7 km/h 98.8% 4.32 mm 0 W/m2
04:14 9 °C 8.9 °C 1019.2 hPa NW 0.8 km/h 9.7 km/h 99.5% 4.32 mm 0 W/m2
04:19 9 °C 8.6 °C 1018.8 hPa NNW 1.8 km/h 11.3 km/h 97.2% 4.57 mm 0 W/m2
04:24 9 °C 8.7 °C 1019.2 hPa NW 3.1 km/h 17.7 km/h 98% 4.57 mm 0 W/m2
04:29 9 °C 8.6 °C 1019.2 hPa NNW 1 km/h 17.7 km/h 97% 4.57 mm 0 W/m2
04:34 9.1 °C 8.6 °C 1018.8 hPa NW 2.4 km/h 17.7 km/h 97% 4.57 mm 0 W/m2
04:39 9.1 °C 8.6 °C 1019.2 hPa NNW 1.3 km/h 11.3 km/h 97% 3.81 mm 0 W/m2
04:44 9.1 °C 8.6 °C 1019.2 hPa North 0.2 km/h 11.3 km/h 97% 3.81 mm 0 W/m2
04:49 9.1 °C 8.6 °C 1019.5 hPa North 2.1 km/h 14.5 km/h 97% 3.81 mm 0 W/m2
04:54 9.1 °C 8.6 °C 1019.5 hPa NNE 0.6 km/h 14.5 km/h 97% 3.81 mm 0 W/m2
04:59 9.1 °C 8.7 °C 1019.5 hPa North 1.8 km/h 14.5 km/h 97% 3.81 mm 0 W/m2
05:04 9.1 °C 8.7 °C 1019.5 hPa NNW 1.9 km/h 14.5 km/h 97% 3.81 mm 0 W/m2
05:09 9.1 °C 8.7 °C 1019.2 hPa NW 0.2 km/h 11.3 km/h 97% 0.51 mm 0 W/m2
05:14 9.2 °C 8.7 °C 1019.2 hPa NW 1 km/h 12.9 km/h 97% 0.51 mm 0 W/m2
05:19 9.2 °C 8.7 °C 1019.2 hPa NNW 0.5 km/h 12.9 km/h 97% 0.51 mm 0 W/m2
05:24 9.2 °C 8.7 °C 1019.2 hPa North 1.3 km/h 12.9 km/h 97% 0.51 mm 0 W/m2
05:29 9.2 °C 8.7 °C 1019.5 hPa NNW 1.8 km/h 12.9 km/h 97% 0.76 mm 0 W/m2
05:34 9.2 °C 8.7 °C 1019.5 hPa NNW 1.1 km/h 12.9 km/h 97% 0.76 mm 0 W/m2
05:39 9.2 °C 8.7 °C 1019.5 hPa NW 1.8 km/h 14.5 km/h 97% 0.76 mm 0 W/m2
05:44 9.2 °C 8.8 °C 1019.5 hPa North 0.8 km/h 14.5 km/h 97% 0.76 mm 5 W/m2
05:49 9.2 °C 8.8 °C 1019.9 hPa NW 2.6 km/h 14.5 km/h 97% 0.76 mm 7 W/m2
05:54 9.2 °C 8.8 °C 1019.9 hPa NNW 1.8 km/h 14.5 km/h 97% 0.76 mm 9 W/m2
05:59 9.3 °C 8.8 °C 1019.9 hPa WNW 2.1 km/h 14.5 km/h 97% 0.76 mm 11 W/m2
06:04 9.3 °C 8.8 °C 1019.9 hPa West 1.8 km/h 14.5 km/h 97% 0.76 mm 11 W/m2
06:09 9.3 °C 8.8 °C 1019.9 hPa NW 1 km/h 9.7 km/h 97% 0.51 mm 16 W/m2
06:14 9.3 °C 8.9 °C 1019.9 hPa NW 1.1 km/h 9.7 km/h 97% 0.51 mm 23 W/m2
06:19 9.3 °C 8.9 °C 1019.9 hPa NW 0.8 km/h 9.7 km/h 97% 0.51 mm 33 W/m2
06:24 9.4 °C 8.9 °C 1019.9 hPa NNW 1.4 km/h 9.7 km/h 97% 0.51 mm 46 W/m2
06:29 9.4 °C 8.9 °C 1019.9 hPa NE 0.3 km/h 9.7 km/h 97% 0.51 mm 56 W/m2
06:34 9.4 °C 9 °C 1019.9 hPa NW 0.2 km/h 9.7 km/h 97% 0.51 mm 62 W/m2
06:39 9.6 °C 9.1 °C 1019.5 hPa NE 1.4 km/h 11.3 km/h 97% 0.25 mm 63 W/m2
06:44 9.6 °C 9.1 °C 1019.9 hPa NW 0.6 km/h 11.3 km/h 97% 0.25 mm 69 W/m2
06:49 9.6 °C 9.2 °C 1019.9 hPa NW 0.2 km/h 11.3 km/h 97% 0.25 mm 67 W/m2
06:54 9.7 °C 9.2 °C 1019.9 hPa NNW 2.4 km/h 11.3 km/h 97% 0.25 mm 83 W/m2
06:59 9.7 °C 9.3 °C 1019.9 hPa NW 0.5 km/h 11.3 km/h 97% 0.25 mm 74 W/m2
07:04 9.8 °C 9.3 °C 1020.2 hPa NNW 1.3 km/h 11.3 km/h 97% 0.25 mm 72 W/m2
07:09 9.8 °C 9.4 °C 1020.2 hPa NNE 1.1 km/h 11.3 km/h 97% 0.25 mm 74 W/m2
07:14 9.8 °C 9.4 °C 1020.2 hPa NNE 0.5 km/h 11.3 km/h 97% 0.25 mm 53 W/m2
07:19 9.9 °C 9.5 °C 1020.5 hPa NNW 1 km/h 11.3 km/h 97% 0.25 mm 56 W/m2
07:24 9.9 °C 9.5 °C 1020.5 hPa West 0.8 km/h 11.3 km/h 97% 0.25 mm 49 W/m2
07:29 9.9 °C 9.5 °C 1020.5 hPa WNW 2.3 km/h 11.3 km/h 97% 0.25 mm 51 W/m2
07:34 9.9 °C 9.5 °C 1020.5 hPa NW 1.1 km/h 11.3 km/h 97% 0.25 mm 53 W/m2
07:39 10 °C 9.6 °C 1020.5 hPa NW 2.9 km/h 8 km/h 97% 0.25 mm 53 W/m2
07:44 10 °C 9.6 °C 1020.9 hPa WNW 1.3 km/h 9.7 km/h 97% 0.25 mm 54 W/m2
07:49 10 °C 9.6 °C 1020.9 hPa NNW 1.8 km/h 11.3 km/h 97% 0.25 mm 60 W/m2
07:54 10.1 °C 9.6 °C 1020.9 hPa NW 1.1 km/h 11.3 km/h 97% 0.25 mm 77 W/m2
07:59 10.1 °C 9.6 °C 1020.9 hPa NW 2.1 km/h 11.3 km/h 97% 0.25 mm 77 W/m2
08:04 10.1 °C 9.7 °C 1020.5 hPa North 1.1 km/h 8 km/h 97% 0.25 mm 74 W/m2
08:09 10.2 °C 9.7 °C 1020.5 hPa North 1.1 km/h 8 km/h 97% 0.25 mm 104 W/m2
08:14 10.2 °C 9.8 °C 1020.5 hPa Calm   8 km/h 97% 0.25 mm 149 W/m2
08:19 10.3 °C 9.8 °C 1020.2 hPa Calm   8 km/h 97% 0.25 mm 237 W/m2
08:24 10.4 °C 10 °C 1020.2 hPa North 1 km/h 8 km/h 97% 0.25 mm 285 W/m2
08:29 10.8 °C 10.4 °C 1020.2 hPa NW 0.5 km/h 8 km/h 97% 0.25 mm 315 W/m2
08:34 11.2 °C 10.7 °C 1020.5 hPa NNE 0.5 km/h 8 km/h 97% 0.25 mm 299 W/m2
08:39 11.4 °C 10.9 °C 1020.2 hPa North 0.6 km/h 6.4 km/h 97% 0 mm 260 W/m2
08:44 11.3 °C 10.8 °C 1020.5 hPa NW 1.4 km/h 11.3 km/h 97% 0 mm 206 W/m2
08:49 11.2 °C 10.8 °C 1020.5 hPa NNW 3.1 km/h 11.3 km/h 97% 0 mm 204 W/m2
08:54 11.2 °C 10.7 °C 1020.5 hPa NW 2.7 km/h 16.1 km/h 97% 0 mm 216 W/m2
08:59 11.2 °C 10.7 °C 1020.5 hPa North 2.1 km/h 16.1 km/h 97% 0 mm 216 W/m2
09:04 11.3 °C 10.8 °C 1020.5 hPa NNW 0.2 km/h 16.1 km/h 97% 0 mm 174 W/m2
09:09 11.3 °C 10.8 °C 1020.5 hPa NW 3.4 km/h 14.5 km/h 97% 0 mm 165 W/m2
09:14 11.2 °C 10.8 °C 1020.5 hPa NW 2.9 km/h 14.5 km/h 97% 0 mm 163 W/m2
09:19 11.2 °C 10.8 °C 1020.5 hPa NW 0.5 km/h 14.5 km/h 97% 0 mm 162 W/m2
09:24 11.3 °C 10.8 °C 1020.5 hPa NW 3.9 km/h 25.7 km/h 97% 0 mm 169 W/m2
09:29 11.2 °C 10.7 °C 1020.5 hPa NNW 1.4 km/h 25.7 km/h 96.5% 0 mm 163 W/m2
09:34 11.3 °C 10.8 °C 1020.5 hPa NNW 1.8 km/h 25.7 km/h 96.5% 0 mm 163 W/m2
09:39 11.4 °C 10.9 °C 1020.5 hPa NW 3.7 km/h 16.1 km/h 96.7% 0 mm 209 W/m2
09:44 11.4 °C 10.8 °C 1020.2 hPa NNW 1.3 km/h 16.1 km/h 96% 0 mm 211 W/m2
09:49 11.6 °C 10.9 °C 1020.2 hPa NW 3.2 km/h 16.1 km/h 96% 0 mm 204 W/m2
09:54 11.7 °C 11 °C 1020.2 hPa NW 1.6 km/h 16.1 km/h 96% 0 mm 306 W/m2
09:59 11.7 °C 11.1 °C 1019.9 hPa NNW 1.9 km/h 16.1 km/h 96% 0 mm 432 W/m2
10:04 11.9 °C 11.3 °C 1020.2 hPa NNW 0.5 km/h 16.1 km/h 96% 0 mm 462 W/m2
10:09 12.2 °C 11.6 °C 1020.2 hPa NNW 3.4 km/h 17.7 km/h 96% 0 mm 304 W/m2
10:14 12.3 °C 11.5 °C 1020.2 hPa WNW 2.3 km/h 17.7 km/h 95% 0 mm 287 W/m2
10:19 12.4 °C 11.5 °C 1020.5 hPa NW 1.1 km/h 17.7 km/h 94.2% 0 mm 199 W/m2
10:24 12.5 °C 11.6 °C 1020.5 hPa WNW 2.4 km/h 17.7 km/h 94% 0 mm 197 W/m2
10:29 12.6 °C 11.7 °C 1020.5 hPa West 0.8 km/h 17.7 km/h 94% 0 mm 202 W/m2
10:34 12.7 °C 11.7 °C 1020.2 hPa Calm   17.7 km/h 93.8% 0 mm 229 W/m2
10:39 12.8 °C 11.7 °C 1020.2 hPa NNW 1.4 km/h 8 km/h 93% 0 mm 230 W/m2
10:44 12.8 °C 11.7 °C 1020.5 hPa North 1.6 km/h 9.7 km/h 93% 0 mm 230 W/m2
10:49 12.9 °C 11.6 °C 1020.5 hPa WNW 2.1 km/h 9.7 km/h 92% 0 mm 197 W/m2
10:54 12.9 °C 11.5 °C 1020.5 hPa WNW 1 km/h 9.7 km/h 91.2% 0 mm 121 W/m2
10:59 12.9 °C 11.5 °C 1020.5 hPa WNW 0.8 km/h 9.7 km/h 91% 0 mm 88 W/m2
11:04 12.9 °C 11.5 °C 1020.5 hPa WNW 1.6 km/h 9.7 km/h 91% 0 mm 155 W/m2
11:09 12.9 °C 11.4 °C 1020.5 hPa West 1.9 km/h 14.5 km/h 91% 0 mm 155 W/m2
11:14 12.8 °C 11.4 °C 1020.5 hPa West 1.9 km/h 14.5 km/h 91% 0 mm 239 W/m2
11:19 12.8 °C 11.4 °C 1020.2 hPa WNW 4.3 km/h 14.5 km/h 91% 0 mm 246 W/m2
11:24 12.9 °C 11.3 °C 1020.5 hPa WNW 2.3 km/h 14.5 km/h 90.3% 0 mm 169 W/m2
11:29 12.9 °C 11.3 °C 1020.5 hPa West 1.3 km/h 14.5 km/h 90% 0 mm 120 W/m2
11:34 12.9 °C 11.3 °C 1020.5 hPa WNW 5.8 km/h 16.1 km/h 89.7% 0 mm 213 W/m2
11:39 12.9 °C 11.2 °C 1020.5 hPa WNW 4.7 km/h 16.1 km/h 89% 0 mm 156 W/m2
11:44 12.9 °C 11.1 °C 1020.5 hPa WNW 7.7 km/h 20.9 km/h 88.8% 0 mm 144 W/m2
11:49 12.9 °C 11 °C 1020.5 hPa WNW 2.3 km/h 20.9 km/h 88.2% 0 mm 121 W/m2
11:54 12.9 °C 11.2 °C 1020.9 hPa WNW 3.5 km/h 20.9 km/h 89% 0 mm 128 W/m2
11:59 12.9 °C 11.2 °C 1020.9 hPa WNW 3.7 km/h 20.9 km/h 88.8% 0 mm 132 W/m2
12:00 12.9 °C 11 °C 1020.5 hPa West 8 km/h 20.9 km/h 88% 0 mm 130 W/m2
12:09 12.9 °C 11.1 °C 1020.9 hPa WNW 2.4 km/h 16.1 km/h 88.3% 0 mm 156 W/m2
12:14 13 °C 11.3 °C 1020.9 hPa WNW 6.4 km/h 16.1 km/h 89% 0 mm 183 W/m2
12:19 13.1 °C 11.3 °C 1020.5 hPa WNW 5.6 km/h 16.1 km/h 89% 0 mm 207 W/m2
12:24 13.1 °C 11.4 °C 1020.9 hPa West 0.8 km/h 16.1 km/h 89.5% 0 mm 207 W/m2
12:29 13.2 °C 11.6 °C 1020.9 hPa West 1 km/h 16.1 km/h 90% 0 mm 257 W/m2
12:34 13.3 °C 11.7 °C 1020.5 hPa WNW 5 km/h 16.1 km/h 90% 0 mm 294 W/m2
12:39 13.3 °C 11.6 °C 1020.5 hPa WNW 3.9 km/h 14.5 km/h 89.2% 0 mm 295 W/m2
12:44 13.5 °C 11.8 °C 1020.5 hPa WNW 2.3 km/h 14.5 km/h 89.3% 0 mm 274 W/m2
12:49 13.7 °C 12.1 °C 1020.5 hPa West 3.9 km/h 19.3 km/h 89.9% 0 mm 258 W/m2
12:54 13.8 °C 12 °C 1020.5 hPa NW 3.4 km/h 19.3 km/h 89% 0 mm 290 W/m2
12:59 13.8 °C 11.8 °C 1020.5 hPa WNW 6.1 km/h 19.3 km/h 88.1% 0 mm 276 W/m2
13:04 13.8 °C 11.6 °C 1020.5 hPa WNW 8.4 km/h 19.3 km/h 86.8% 0 mm 295 W/m2
13:09 13.8 °C 11.4 °C 1020.5 hPa WNW 9.8 km/h 20.9 km/h 86% 0 mm 410 W/m2
13:14 13.8 °C 11.6 °C 1020.5 hPa WNW 7.1 km/h 20.9 km/h 86.3% 0 mm 415 W/m2
13:19 13.9 °C 11.7 °C 1020.5 hPa WNW 9.7 km/h 22.5 km/h 86% 0 mm 557 W/m2
13:24 14.1 °C 11.7 °C 1020.5 hPa WNW 8.9 km/h 22.5 km/h 85.8% 0 mm 707 W/m2
13:29 14.4 °C 11.9 °C 1020.2 hPa WNW 5.8 km/h 22.5 km/h 85.4% 0 mm 744 W/m2
13:34 14.7 °C 11.9 °C 1020.2 hPa WNW 9.2 km/h 24.1 km/h 83.5% 0 mm 559 W/m2
13:39 15 °C 12.2 °C 1019.9 hPa NW 7.2 km/h 24.1 km/h 83.2% 0 mm 979 W/m2
13:44 15.3 °C 12 °C 1019.9 hPa WNW 9 km/h 24.1 km/h 80.7% 0 mm 979 W/m2
13:49 15.4 °C 11.9 °C 1019.9 hPa NW 12.2 km/h 32.2 km/h 79.5% 0 mm 594 W/m2
13:54 15.4 °C 11.8 °C 1019.9 hPa NW 10.1 km/h 32.2 km/h 79% 0 mm 504 W/m2
13:59 15.4 °C 12 °C 1019.9 hPa NW 2.6 km/h 32.2 km/h 79.7% 0 mm 582 W/m2
14:04 15.6 °C 12.1 °C 1019.9 hPa NW 5.6 km/h 32.2 km/h 79.6% 0 mm 747 W/m2
14:09 15.8 °C 12.3 °C 1019.9 hPa NW 3.7 km/h 19.3 km/h 79.6% 0 mm 772 W/m2
14:14 16.1 °C 12.4 °C 1019.9 hPa WNW 4 km/h 20.9 km/h 79% 0 mm 534 W/m2
14:19 16.3 °C 12.6 °C 1019.9 hPa WNW 4.5 km/h 24.1 km/h 78.3% 0 mm 534 W/m2
14:24 16.4 °C 12.1 °C 1019.9 hPa WNW 4.2 km/h 24.1 km/h 75.4% 0 mm 512 W/m2
14:29 16.4 °C 11.9 °C 1019.9 hPa West 4.5 km/h 24.1 km/h 75% 0 mm 392 W/m2
14:34 16.4 °C 11.9 °C 1019.9 hPa WNW 4.3 km/h 24.1 km/h 75% 0 mm 392 W/m2
14:39 16.4 °C 12.1 °C 1019.9 hPa NW 4 km/h 16.1 km/h 75.7% 0 mm 274 W/m2
14:44 16.3 °C 12.1 °C 1019.9 hPa WNW 5.1 km/h 22.5 km/h 75.7% 0 mm 178 W/m2
14:49 16.2 °C 11.8 °C 1020.2 hPa WNW 9.2 km/h 25.7 km/h 75.2% 0 mm 181 W/m2
14:54 16 °C 11.6 °C 1020.2 hPa West 5.5 km/h 25.7 km/h 75.2% 0 mm 146 W/m2
14:59 15.8 °C 11.6 °C 1019.9 hPa West 4.3 km/h 25.7 km/h 76% 0 mm 262 W/m2
15:04 15.7 °C 11.7 °C 1019.9 hPa WNW 1.4 km/h 25.7 km/h 76.9% 0 mm 316 W/m2
15:09 15.8 °C 11.8 °C 1020.2 hPa West 4 km/h 17.7 km/h 77.5% 0 mm 294 W/m2
15:14 15.8 °C 11.8 °C 1020.2 hPa WNW 4.2 km/h 17.7 km/h 76.9% 0 mm 257 W/m2
15:19 15.9 °C 11.8 °C 1020.2 hPa WNW 7.9 km/h 19.3 km/h 76.5% 0 mm 197 W/m2
15:24 15.8 °C 11.7 °C 1020.2 hPa WNW 9.2 km/h 22.5 km/h 76.3% 0 mm 130 W/m2
15:29 15.7 °C 11.7 °C 1020.2 hPa WNW 4.3 km/h 22.5 km/h 76.8% 0 mm 155 W/m2
15:34 15.6 °C 11.4 °C 1020.2 hPa WNW 7.1 km/h 27.4 km/h 76.2% 0 mm 269 W/m2
15:39 15.6 °C 11.4 °C 1020.2 hPa NW 6.8 km/h 27.4 km/h 76.5% 0 mm 315 W/m2
15:44 15.7 °C 11.4 °C 1020.2 hPa NW 7.1 km/h 27.4 km/h 75.8% 0 mm 306 W/m2
15:49 15.9 °C 11.7 °C 1020.5 hPa WNW 1.4 km/h 27.4 km/h 76.4% 0 mm 304 W/m2
15:50 16.1 °C 12.1 °C 1020.2 hPa WNW 8.5 km/h 27.4 km/h 77% 0 mm 232 W/m2
16:09 16 °C 11.4 °C 1020.5 hPa NW 5.3 km/h 16.1 km/h 74% 0 mm 323 W/m2
16:14 16 °C 11.7 °C 1020.5 hPa NW 1.8 km/h 16.1 km/h 75.4% 0 mm 346 W/m2
16:19 16.2 °C 11.7 °C 1020.5 hPa NW 3.9 km/h 16.1 km/h 75.1% 0 mm 271 W/m2
16:24 16.3 °C 11.7 °C 1020.2 hPa NW 3.5 km/h 25.7 km/h 74.5% 0 mm 156 W/m2
16:29 16.2 °C 11.4 °C 1020.2 hPa NW 8.7 km/h 25.7 km/h 73% 0 mm 153 W/m2
16:34 16.2 °C 11.3 °C 1020.5 hPa NW 4.7 km/h 25.7 km/h 73.1% 0 mm 207 W/m2
16:39 16.1 °C 11.3 °C 1020.2 hPa NW 4.2 km/h 22.5 km/h 73.3% 0 mm 230 W/m2
16:44 16.2 °C 11.4 °C 1020.5 hPa NW 1.9 km/h 22.5 km/h 73.5% 0 mm 214 W/m2
16:49 16.2 °C 11.7 °C 1020.5 hPa NW 4 km/h 22.5 km/h 74.2% 0 mm 199 W/m2
16:54 16.3 °C 11.5 °C 1020.2 hPa NW 3.7 km/h 22.5 km/h 73.3% 0 mm 192 W/m2
16:59 16.3 °C 11.6 °C 1020.2 hPa NW 1.3 km/h 22.5 km/h 73.4% 0 mm 232 W/m2
17:04 16.4 °C 11.9 °C 1020.2 hPa WNW 3.5 km/h 22.5 km/h 74.3% 0 mm 135 W/m2
17:09 16.7 °C 12 °C 1020.2 hPa WNW 5.3 km/h 17.7 km/h 73.9% 0 mm 70 W/m2
17:14 16.9 °C 11.7 °C 1020.2 hPa WNW 6.1 km/h 22.5 km/h 71.4% 0 mm 234 W/m2
17:19 17.1 °C 12 °C 1020.2 hPa NW 2.7 km/h 22.5 km/h 72.1% 0 mm 234 W/m2
17:24 17.2 °C 12.1 °C 1020.5 hPa WNW 5.5 km/h 22.5 km/h 71.9% 0 mm 197 W/m2
17:29 17.3 °C 11.9 °C 1020.5 hPa West 2.6 km/h 22.5 km/h 71% 0 mm 192 W/m2
17:34 17.2 °C 12 °C 1020.5 hPa WNW 0.8 km/h 22.5 km/h 71.5% 0 mm 169 W/m2
17:39 17.2 °C 12.1 °C 1020.5 hPa Calm   6.4 km/h 72.2% 0 mm 174 W/m2
17:44 17.2 °C 12.4 °C 1020.9 hPa NW 1.4 km/h 9.7 km/h 73.3% 0 mm 121 W/m2
17:49 17.2 °C 12.2 °C 1020.9 hPa WNW 2.4 km/h 11.3 km/h 72.3% 0 mm 32 W/m2
17:54 17.1 °C 12.1 °C 1020.9 hPa NW 1.6 km/h 11.3 km/h 72.4% 0 mm 60 W/m2
17:59 17.1 °C 12.1 °C 1020.9 hPa WNW 3.2 km/h 11.3 km/h 72.6% 0 mm 53 W/m2
18:04 17.1 °C 12.1 °C 1020.9 hPa NNW 0.8 km/h 11.3 km/h 72.5% 0 mm 39 W/m2
18:09 17.1 °C 12.1 °C 1020.9 hPa NNW 1.6 km/h 6.4 km/h 72.3% 0 mm 35 W/m2
18:14 17.1 °C 12.1 °C 1020.9 hPa NNW 0.5 km/h 6.4 km/h 72.3% 0 mm 35 W/m2
18:19 17.2 °C 12.1 °C 1020.9 hPa NW 2.1 km/h 9.7 km/h 72.2% 0 mm 37 W/m2
18:24 17.2 °C 12.1 °C 1020.9 hPa WNW 4.3 km/h 9.7 km/h 72% 0 mm 37 W/m2
18:29 17.3 °C 12.1 °C 1020.9 hPa WSW 1.6 km/h 16.1 km/h 71.6% 0 mm 35 W/m2
18:34 17.3 °C 12.1 °C 1020.9 hPa West 1.3 km/h 16.1 km/h 71.5% 0 mm 33 W/m2
18:39 17.3 °C 12.2 °C 1020.9 hPa WNW 0.6 km/h 11.3 km/h 71.8% 0 mm 32 W/m2
18:44 17.3 °C 12.1 °C 1020.9 hPa NNW 1 km/h 11.3 km/h 71.3% 0 mm 32 W/m2
18:49 17.2 °C 11.9 °C 1020.9 hPa NW 1.8 km/h 12.9 km/h 71.2% 0 mm 30 W/m2
18:54 17.2 °C 11.9 °C 1020.9 hPa Calm   12.9 km/h 71.1% 0 mm 30 W/m2
18:59 17.2 °C 12.1 °C 1020.9 hPa NW 0.6 km/h 12.9 km/h 72% 0 mm 28 W/m2
19:04 17.2 °C 12.1 °C 1020.9 hPa NW 0.2 km/h 12.9 km/h 72% 0 mm 28 W/m2
19:09 17.2 °C 12.1 °C 1020.9 hPa Calm   3.2 km/h 72% 0 mm 26 W/m2
19:14 17.2 °C 11.9 °C 1020.9 hPa NW 0.2 km/h 3.2 km/h 71.5% 0 mm 26 W/m2
19:19 17.1 °C 11.9 °C 1020.9 hPa Calm   3.2 km/h 71.3% 0 mm 25 W/m2
19:24 17.1 °C 11.8 °C 1020.9 hPa Calm   3.2 km/h 71% 0 mm 23 W/m2
19:29 17.1 °C 11.9 °C 1020.9 hPa Calm   3.2 km/h 71.8% 0 mm 23 W/m2
19:34 17.1 °C 11.9 °C 1020.9 hPa Calm   3.2 km/h 72% 0 mm 21 W/m2
19:39 17 °C 12.1 °C 1020.9 hPa Calm     72.7% 0 mm 19 W/m2
19:44 16.9 °C 11.9 °C 1021.2 hPa Calm     72.1% 0 mm 18 W/m2
19:49 16.8 °C 11.9 °C 1021.2 hPa Calm     72.5% 0 mm 16 W/m2
19:54 16.8 °C 11.9 °C 1020.9 hPa Calm     73% 0 mm 12 W/m2
19:59 16.7 °C 11.8 °C 1020.9 hPa Calm     73% 0 mm 9 W/m2
20:00 16.7 °C 11.8 °C 1020.9 hPa Calm     73% 0 mm 5 W/m2
20:09 16.4 °C 11.8 °C 1021.2 hPa Calm     74.1% 0 mm 0 W/m2
20:14 16.3 °C 11.8 °C 1021.2 hPa Calm     75% 0 mm 0 W/m2
20:19 16.2 °C 11.7 °C 1021.2 hPa Calm     75% 0 mm 0 W/m2
20:24 16 °C 11.8 °C 1021.2 hPa Calm     76% 0 mm 0 W/m2
20:29 15.8 °C 11.8 °C 1021.2 hPa Calm     77% 0 mm 0 W/m2
20:34 15.6 °C 11.7 °C 1021.2 hPa Calm     77.9% 0 mm 0 W/m2
20:39 15.3 °C 11.7 °C 1021.2 hPa Calm     79% 0 mm 0 W/m2
20:44 15.1 °C 11.6 °C 1021.6 hPa Calm     79.5% 0 mm 0 W/m2
20:49 14.9 °C 11.4 °C 1021.2 hPa Calm     80% 0 mm 0 W/m2
20:54 14.7 °C 11.4 °C 1021.6 hPa Calm     80.7% 0 mm 0 W/m2
20:59 14.6 °C 11.3 °C 1021.6 hPa Calm     81% 0 mm 0 W/m2
21:04 14.4 °C 11.3 °C 1021.6 hPa Calm     81.8% 0 mm 0 W/m2
21:09 14.3 °C 11.3 °C 1021.9 hPa Calm     82.3% 0 mm 0 W/m2
21:14 14.1 °C 11.3 °C 1021.9 hPa Calm     83% 0 mm 0 W/m2
21:19 14 °C 11.2 °C 1021.6 hPa Calm     83% 0 mm 0 W/m2
21:24 13.9 °C 11.2 °C 1021.9 hPa Calm     84% 0 mm 0 W/m2
21:29 13.8 °C 11.2 °C 1021.9 hPa Calm     84% 0 mm 0 W/m2
21:34 13.7 °C 11.1 °C 1021.9 hPa Calm     84.2% 0 mm 0 W/m2
21:39 13.6 °C 11.1 °C 1021.9 hPa Calm     85% 0 mm 0 W/m2
21:44 13.5 °C 11.1 °C 1021.9 hPa Calm     85% 0 mm 0 W/m2
22:00 13.3 °C 11 °C 1022.2 hPa Calm     86% 0 mm 0 W/m2
22:30 12.9 °C 10.8 °C 1021.9 hPa Calm     87% 0 mm 0 W/m2
23:00 12.6 °C 10.8 °C 1022.2 hPa Calm     89% 0 mm 0 W/m2
23:30 12.2 °C 10.4 °C 1022.2 hPa Calm     89% 0 mm 0 W/m2
Hartford County Weather
Compliments of Weather Underground - 2 mb